sensor_id;sensor_type;location;lat;lon;timestamp;temperature;humidity
22526;DHT22;11429;50.842;4.386;2022-12-26T00:01:11;11.30;99.90
22526;DHT22;11429;50.842;4.386;2022-12-26T00:03:37;11.20;99.90
22526;DHT22;11429;50.842;4.386;2022-12-26T00:06:03;11.20;99.90
22526;DHT22;11429;50.842;4.386;2022-12-26T00:08:29;11.20;99.90
22526;DHT22;11429;50.842;4.386;2022-12-26T00:10:54;11.20;99.90
22526;DHT22;11429;50.842;4.386;2022-12-26T00:13:20;11.20;99.90
22526;DHT22;11429;50.842;4.386;2022-12-26T00:15:46;11.40;99.90
22526;DHT22;11429;50.842;4.386;2022-12-26T00:18:11;11.40;99.90
22526;DHT22;11429;50.842;4.386;2022-12-26T00:20:43;11.30;99.90
22526;DHT22;11429;50.842;4.386;2022-12-26T00:23:09;11.30;99.90
22526;DHT22;11429;50.842;4.386;2022-12-26T00:25:35;11.40;99.90
22526;DHT22;11429;50.842;4.386;2022-12-26T00:28:00;11.30;99.90
22526;DHT22;11429;50.842;4.386;2022-12-26T00:30:26;11.30;99.90
22526;DHT22;11429;50.842;4.386;2022-12-26T00:32:52;11.30;99.90
22526;DHT22;11429;50.842;4.386;2022-12-26T00:35:17;11.20;99.90
22526;DHT22;11429;50.842;4.386;2022-12-26T00:37:43;11.20;99.90
22526;DHT22;11429;50.842;4.386;2022-12-26T00:40:09;11.30;99.90
22526;DHT22;11429;50.842;4.386;2022-12-26T00:42:35;11.20;99.90
22526;DHT22;11429;50.842;4.386;2022-12-26T00:45:00;11.30;99.90
22526;DHT22;11429;50.842;4.386;2022-12-26T00:47:26;11.30;99.90
22526;DHT22;11429;50.842;4.386;2022-12-26T00:49:52;11.20;99.90
22526;DHT22;11429;50.842;4.386;2022-12-26T00:52:17;11.20;99.90
22526;DHT22;11429;50.842;4.386;2022-12-26T00:54:44;11.20;99.90
22526;DHT22;11429;50.842;4.386;2022-12-26T00:57:10;11.10;99.90
22526;DHT22;11429;50.842;4.386;2022-12-26T00:59:35;11.10;99.90
22526;DHT22;11429;50.842;4.386;2022-12-26T01:02:01;11.10;99.90
22526;DHT22;11429;50.842;4.386;2022-12-26T01:04:46;11.00;99.90
22526;DHT22;11429;50.842;4.386;2022-12-26T01:07:12;11.10;99.90
22526;DHT22;11429;50.842;4.386;2022-12-26T01:09:38;11.20;99.90
22526;DHT22;11429;50.842;4.386;2022-12-26T01:12:03;11.10;99.90
22526;DHT22;11429;50.842;4.386;2022-12-26T01:14:29;11.20;99.90
22526;DHT22;11429;50.842;4.386;2022-12-26T01:16:55;11.30;99.90
22526;DHT22;11429;50.842;4.386;2022-12-26T01:19:20;11.30;99.90
22526;DHT22;11429;50.842;4.386;2022-12-26T01:21:46;11.20;99.90
22526;DHT22;11429;50.842;4.386;2022-12-26T01:24:11;11.20;99.90
22526;DHT22;11429;50.842;4.386;2022-12-26T01:26:38;11.10;99.90
22526;DHT22;11429;50.842;4.386;2022-12-26T01:29:03;11.20;99.90
22526;DHT22;11429;50.842;4.386;2022-12-26T01:31:30;11.30;99.90
22526;DHT22;11429;50.842;4.386;2022-12-26T01:33:58;11.20;99.90
22526;DHT22;11429;50.842;4.386;2022-12-26T01:36:24;11.30;99.90
22526;DHT22;11429;50.842;4.386;2022-12-26T01:38:50;11.40;99.90
22526;DHT22;11429;50.842;4.386;2022-12-26T01:41:15;11.20;99.90
22526;DHT22;11429;50.842;4.386;2022-12-26T01:43:54;11.30;99.90
22526;DHT22;11429;50.842;4.386;2022-12-26T01:46:39;11.30;99.90
22526;DHT22;11429;50.842;4.386;2022-12-26T01:49:15;11.30;99.90
22526;DHT22;11429;50.842;4.386;2022-12-26T01:51:47;11.20;99.90
22526;DHT22;11429;50.842;4.386;2022-12-26T01:54:14;11.30;99.90
22526;DHT22;11429;50.842;4.386;2022-12-26T01:56:42;11.30;99.90
22526;DHT22;11429;50.842;4.386;2022-12-26T01:59:16;11.20;99.90
22526;DHT22;11429;50.842;4.386;2022-12-26T02:01:44;11.30;99.90
22526;DHT22;11429;50.842;4.386;2022-12-26T02:04:15;11.20;99.90
22526;DHT22;11429;50.842;4.386;2022-12-26T02:07:01;11.30;99.90
22526;DHT22;11429;50.842;4.386;2022-12-26T02:09:29;11.20;99.90
22526;DHT22;11429;50.842;4.386;2022-12-26T02:12:05;11.20;99.90
22526;DHT22;11429;50.842;4.386;2022-12-26T02:14:32;11.20;99.90
22526;DHT22;11429;50.842;4.386;2022-12-26T02:16:58;11.10;99.90
22526;DHT22;11429;50.842;4.386;2022-12-26T02:19:36;11.10;99.90
22526;DHT22;11429;50.842;4.386;2022-12-26T02:31:27;11.10;99.90
22526;DHT22;11429;50.842;4.386;2022-12-26T02:44:53;10.80;99.90
22526;DHT22;11429;50.842;4.386;2022-12-26T02:48:04;10.80;99.90
22526;DHT22;11429;50.842;4.386;2022-12-26T02:57:20;10.80;99.90
22526;DHT22;11429;50.842;4.386;2022-12-26T03:00:13;10.80;99.90
22526;DHT22;11429;50.842;4.386;2022-12-26T03:03:02;10.90;99.90
22526;DHT22;11429;50.842;4.386;2022-12-26T03:05:59;10.90;99.90
22526;DHT22;11429;50.842;4.386;2022-12-26T03:08:54;10.80;99.90
22526;DHT22;11429;50.842;4.386;2022-12-26T03:11:41;10.70;99.90
22526;DHT22;11429;50.842;4.386;2022-12-26T03:14:30;10.90;99.90
22526;DHT22;11429;50.842;4.386;2022-12-26T03:17:06;10.80;99.90
22526;DHT22;11429;50.842;4.386;2022-12-26T03:20:15;10.80;99.90
22526;DHT22;11429;50.842;4.386;2022-12-26T03:22:52;10.80;99.90
22526;DHT22;11429;50.842;4.386;2022-12-26T03:28:24;10.80;99.90
22526;DHT22;11429;50.842;4.386;2022-12-26T03:30:50;10.90;99.90
22526;DHT22;11429;50.842;4.386;2022-12-26T03:33:17;10.90;99.90
22526;DHT22;11429;50.842;4.386;2022-12-26T03:36:03;10.90;99.90
22526;DHT22;11429;50.842;4.386;2022-12-26T03:41:51;10.70;99.90
22526;DHT22;11429;50.842;4.386;2022-12-26T03:50:46;10.90;99.90
22526;DHT22;11429;50.842;4.386;2022-12-26T03:53:42;11.00;99.90
22526;DHT22;11429;50.842;4.386;2022-12-26T03:56:50;11.10;99.90
22526;DHT22;11429;50.842;4.386;2022-12-26T03:59:54;11.00;99.90
22526;DHT22;11429;50.842;4.386;2022-12-26T04:02:43;10.90;99.90
22526;DHT22;11429;50.842;4.386;2022-12-26T04:05:28;10.80;99.90
22526;DHT22;11429;50.842;4.386;2022-12-26T04:08:16;10.70;99.90
22526;DHT22;11429;50.842;4.386;2022-12-26T04:11:02;10.70;99.90
22526;DHT22;11429;50.842;4.386;2022-12-26T04:20:48;10.60;99.90
22526;DHT22;11429;50.842;4.386;2022-12-26T04:23:19;10.80;99.90
22526;DHT22;11429;50.842;4.386;2022-12-26T04:26:18;10.80;99.90
22526;DHT22;11429;50.842;4.386;2022-12-26T04:29:04;10.90;99.90
22526;DHT22;11429;50.842;4.386;2022-12-26T04:31:56;11.10;99.90
22526;DHT22;11429;50.842;4.386;2022-12-26T04:34:51;11.10;99.90
22526;DHT22;11429;50.842;4.386;2022-12-26T04:37:40;11.00;99.90
22526;DHT22;11429;50.842;4.386;2022-12-26T04:40:28;10.90;99.90
22526;DHT22;11429;50.842;4.386;2022-12-26T04:43:14;10.90;99.90
22526;DHT22;11429;50.842;4.386;2022-12-26T04:45:59;10.80;99.90
22526;DHT22;11429;50.842;4.386;2022-12-26T04:48:26;10.80;99.90
22526;DHT22;11429;50.842;4.386;2022-12-26T04:51:10;10.80;99.90
22526;DHT22;11429;50.842;4.386;2022-12-26T04:53:35;10.90;99.90
22526;DHT22;11429;50.842;4.386;2022-12-26T04:56:01;11.00;99.90
22526;DHT22;11429;50.842;4.386;2022-12-26T04:58:27;11.10;99.90
22526;DHT22;11429;50.842;4.386;2022-12-26T05:00:52;11.10;99.90
22526;DHT22;11429;50.842;4.386;2022-12-26T05:03:38;11.10;99.90
22526;DHT22;11429;50.842;4.386;2022-12-26T05:06:22;11.10;99.90
22526;DHT22;11429;50.842;4.386;2022-12-26T05:09:08;10.80;99.90
22526;DHT22;11429;50.842;4.386;2022-12-26T05:11:53;10.90;99.90
22526;DHT22;11429;50.842;4.386;2022-12-26T05:14:19;10.80;99.90
22526;DHT22;11429;50.842;4.386;2022-12-26T05:16:44;10.80;99.90
22526;DHT22;11429;50.842;4.386;2022-12-26T05:19:28;10.90;99.90
22526;DHT22;11429;50.842;4.386;2022-12-26T05:22:12;11.00;99.90
22526;DHT22;11429;50.842;4.386;2022-12-26T05:25:03;11.00;99.90
22526;DHT22;11429;50.842;4.386;2022-12-26T05:27:47;11.10;99.90
22526;DHT22;11429;50.842;4.386;2022-12-26T05:30:31;11.40;99.90
22526;DHT22;11429;50.842;4.386;2022-12-26T05:32:57;11.30;99.90
22526;DHT22;11429;50.842;4.386;2022-12-26T05:35:41;11.20;99.90
22526;DHT22;11429;50.842;4.386;2022-12-26T05:38:09;11.20;99.90
22526;DHT22;11429;50.842;4.386;2022-12-26T05:40:35;11.30;99.90
22526;DHT22;11429;50.842;4.386;2022-12-26T05:43:01;11.20;99.90
22526;DHT22;11429;50.842;4.386;2022-12-26T05:45:26;11.20;99.90
22526;DHT22;11429;50.842;4.386;2022-12-26T05:48:00;11.20;99.90
22526;DHT22;11429;50.842;4.386;2022-12-26T05:50:26;11.30;99.90
22526;DHT22;11429;50.842;4.386;2022-12-26T05:52:52;11.40;99.90
22526;DHT22;11429;50.842;4.386;2022-12-26T05:55:18;11.40;99.90
22526;DHT22;11429;50.842;4.386;2022-12-26T05:57:49;11.20;99.90
22526;DHT22;11429;50.842;4.386;2022-12-26T06:00:15;11.10;99.90
22526;DHT22;11429;50.842;4.386;2022-12-26T06:02:41;11.10;99.90
22526;DHT22;11429;50.842;4.386;2022-12-26T06:05:07;11.20;99.90
22526;DHT22;11429;50.842;4.386;2022-12-26T06:07:33;11.20;99.90
22526;DHT22;11429;50.842;4.386;2022-12-26T06:09:58;11.20;99.90
22526;DHT22;11429;50.842;4.386;2022-12-26T06:12:24;11.10;99.90
22526;DHT22;11429;50.842;4.386;2022-12-26T06:14:50;11.10;99.90
22526;DHT22;11429;50.842;4.386;2022-12-26T06:17:15;11.20;99.90
22526;DHT22;11429;50.842;4.386;2022-12-26T06:19:41;11.20;99.90
22526;DHT22;11429;50.842;4.386;2022-12-26T06:22:06;11.30;99.90
22526;DHT22;11429;50.842;4.386;2022-12-26T06:24:32;11.20;99.90
22526;DHT22;11429;50.842;4.386;2022-12-26T06:26:58;11.10;99.90
22526;DHT22;11429;50.842;4.386;2022-12-26T06:29:23;11.00;99.90
22526;DHT22;11429;50.842;4.386;2022-12-26T06:31:49;10.90;99.90
22526;DHT22;11429;50.842;4.386;2022-12-26T06:34:14;10.90;99.90
22526;DHT22;11429;50.842;4.386;2022-12-26T06:36:41;10.90;99.90
22526;DHT22;11429;50.842;4.386;2022-12-26T06:39:07;11.00;99.90
22526;DHT22;11429;50.842;4.386;2022-12-26T06:41:33;11.10;99.90
22526;DHT22;11429;50.842;4.386;2022-12-26T06:43:58;11.10;99.90
22526;DHT22;11429;50.842;4.386;2022-12-26T06:46:24;11.20;99.90
22526;DHT22;11429;50.842;4.386;2022-12-26T06:48:51;11.20;99.90
22526;DHT22;11429;50.842;4.386;2022-12-26T06:51:22;11.10;99.90
22526;DHT22;11429;50.842;4.386;2022-12-26T06:53:49;11.20;99.90
22526;DHT22;11429;50.842;4.386;2022-12-26T06:56:18;11.10;99.90
22526;DHT22;11429;50.842;4.386;2022-12-26T06:58:44;11.10;99.90
22526;DHT22;11429;50.842;4.386;2022-12-26T07:01:15;11.10;99.90
22526;DHT22;11429;50.842;4.386;2022-12-26T07:03:41;11.10;99.90
22526;DHT22;11429;50.842;4.386;2022-12-26T07:06:24;11.10;99.90
22526;DHT22;11429;50.842;4.386;2022-12-26T07:08:52;11.10;99.90
22526;DHT22;11429;50.842;4.386;2022-12-26T07:11:20;10.90;99.90
22526;DHT22;11429;50.842;4.386;2022-12-26T07:13:46;10.80;99.90
22526;DHT22;11429;50.842;4.386;2022-12-26T07:16:12;11.00;99.90
22526;DHT22;11429;50.842;4.386;2022-12-26T07:18:38;11.00;99.90
22526;DHT22;11429;50.842;4.386;2022-12-26T07:21:05;11.20;99.90
22526;DHT22;11429;50.842;4.386;2022-12-26T07:23:31;11.10;99.90
22526;DHT22;11429;50.842;4.386;2022-12-26T07:25:57;11.20;99.90
22526;DHT22;11429;50.842;4.386;2022-12-26T07:28:23;11.30;99.90
22526;DHT22;11429;50.842;4.386;2022-12-26T07:30:49;11.10;99.90
22526;DHT22;11429;50.842;4.386;2022-12-26T07:33:16;11.10;99.90
22526;DHT22;11429;50.842;4.386;2022-12-26T07:35:42;11.10;99.90
22526;DHT22;11429;50.842;4.386;2022-12-26T07:38:08;10.90;99.90
22526;DHT22;11429;50.842;4.386;2022-12-26T07:40:34;10.90;99.90
22526;DHT22;11429;50.842;4.386;2022-12-26T07:43:03;10.90;99.90
22526;DHT22;11429;50.842;4.386;2022-12-26T07:45:29;11.10;99.90
22526;DHT22;11429;50.842;4.386;2022-12-26T07:47:55;11.10;99.90
22526;DHT22;11429;50.842;4.386;2022-12-26T07:50:22;10.90;99.90
22526;DHT22;11429;50.842;4.386;2022-12-26T07:52:48;10.90;99.90
22526;DHT22;11429;50.842;4.386;2022-12-26T07:55:20;10.90;99.90
22526;DHT22;11429;50.842;4.386;2022-12-26T07:57:52;11.00;99.90
22526;DHT22;11429;50.842;4.386;2022-12-26T08:00:21;10.80;99.90
22526;DHT22;11429;50.842;4.386;2022-12-26T08:02:48;10.80;99.90
22526;DHT22;11429;50.842;4.386;2022-12-26T08:05:15;10.80;99.90
22526;DHT22;11429;50.842;4.386;2022-12-26T08:07:41;10.90;99.90
22526;DHT22;11429;50.842;4.386;2022-12-26T08:10:07;10.90;99.90
22526;DHT22;11429;50.842;4.386;2022-12-26T08:12:40;10.90;99.90
22526;DHT22;11429;50.842;4.386;2022-12-26T08:15:07;11.00;99.90
22526;DHT22;11429;50.842;4.386;2022-12-26T08:17:34;11.00;99.90
22526;DHT22;11429;50.842;4.386;2022-12-26T08:20:04;11.00;99.90
22526;DHT22;11429;50.842;4.386;2022-12-26T08:22:31;10.90;99.90
22526;DHT22;11429;50.842;4.386;2022-12-26T08:25:00;10.90;99.90
22526;DHT22;11429;50.842;4.386;2022-12-26T08:27:26;11.10;99.90
22526;DHT22;11429;50.842;4.386;2022-12-26T08:29:52;11.00;99.90
22526;DHT22;11429;50.842;4.386;2022-12-26T08:32:18;11.00;99.90
22526;DHT22;11429;50.842;4.386;2022-12-26T08:34:44;11.00;99.90
22526;DHT22;11429;50.842;4.386;2022-12-26T08:37:10;11.10;99.90
22526;DHT22;11429;50.842;4.386;2022-12-26T08:39:35;11.00;99.90
22526;DHT22;11429;50.842;4.386;2022-12-26T08:42:01;11.00;99.90
22526;DHT22;11429;50.842;4.386;2022-12-26T08:44:27;11.10;99.90
22526;DHT22;11429;50.842;4.386;2022-12-26T08:46:52;11.10;99.90
22526;DHT22;11429;50.842;4.386;2022-12-26T08:49:18;11.10;99.90
22526;DHT22;11429;50.842;4.386;2022-12-26T08:51:44;11.00;99.90
22526;DHT22;11429;50.842;4.386;2022-12-26T08:54:09;11.00;99.90
22526;DHT22;11429;50.842;4.386;2022-12-26T08:56:35;11.20;99.90
22526;DHT22;11429;50.842;4.386;2022-12-26T08:59:01;11.30;99.90
22526;DHT22;11429;50.842;4.386;2022-12-26T09:01:28;11.10;99.90
22526;DHT22;11429;50.842;4.386;2022-12-26T09:04:00;11.10;99.90
22526;DHT22;11429;50.842;4.386;2022-12-26T09:06:26;11.30;99.90
22526;DHT22;11429;50.842;4.386;2022-12-26T09:08:52;11.20;99.90
22526;DHT22;11429;50.842;4.386;2022-12-26T09:11:23;11.30;99.90
22526;DHT22;11429;50.842;4.386;2022-12-26T09:13:51;11.50;99.90
22526;DHT22;11429;50.842;4.386;2022-12-26T09:16:23;11.60;99.90
22526;DHT22;11429;50.842;4.386;2022-12-26T09:18:53;11.70;99.90
22526;DHT22;11429;50.842;4.386;2022-12-26T09:21:19;11.50;99.90
22526;DHT22;11429;50.842;4.386;2022-12-26T09:23:45;11.40;99.90
22526;DHT22;11429;50.842;4.386;2022-12-26T09:26:14;11.70;99.90
22526;DHT22;11429;50.842;4.386;2022-12-26T09:28:40;11.60;99.90
22526;DHT22;11429;50.842;4.386;2022-12-26T09:31:10;11.50;99.90
22526;DHT22;11429;50.842;4.386;2022-12-26T09:33:36;11.70;99.90
22526;DHT22;11429;50.842;4.386;2022-12-26T09:36:13;11.60;99.90
22526;DHT22;11429;50.842;4.386;2022-12-26T09:38:39;11.70;99.90
22526;DHT22;11429;50.842;4.386;2022-12-26T09:49:55;11.70;99.90
22526;DHT22;11429;50.842;4.386;2022-12-26T09:52:39;11.70;99.90
22526;DHT22;11429;50.842;4.386;2022-12-26T09:59:00;11.60;99.90
22526;DHT22;11429;50.842;4.386;2022-12-26T10:01:27;11.80;99.90
22526;DHT22;11429;50.842;4.386;2022-12-26T10:03:56;11.70;99.90
22526;DHT22;11429;50.842;4.386;2022-12-26T10:06:26;11.80;99.90
22526;DHT22;11429;50.842;4.386;2022-12-26T10:17:35;11.30;99.90
22526;DHT22;11429;50.842;4.386;2022-12-26T10:20:33;11.30;99.90
22526;DHT22;11429;50.842;4.386;2022-12-26T10:26:07;11.40;99.90
22526;DHT22;11429;50.842;4.386;2022-12-26T10:28:39;11.20;99.90
22526;DHT22;11429;50.842;4.386;2022-12-26T10:33:55;11.00;99.90
22526;DHT22;11429;50.842;4.386;2022-12-26T10:36:42;11.00;99.90
22526;DHT22;11429;50.842;4.386;2022-12-26T10:39:30;10.80;99.90
22526;DHT22;11429;50.842;4.386;2022-12-26T10:42:10;10.80;99.90
22526;DHT22;11429;50.842;4.386;2022-12-26T10:44:39;10.90;99.90
22526;DHT22;11429;50.842;4.386;2022-12-26T10:49:52;11.20;99.90
22526;DHT22;11429;50.842;4.386;2022-12-26T10:52:33;11.10;99.90
22526;DHT22;11429;50.842;4.386;2022-12-26T10:55:01;11.10;99.90
22526;DHT22;11429;50.842;4.386;2022-12-26T10:57:30;11.10;99.90
22526;DHT22;11429;50.842;4.386;2022-12-26T11:00:13;11.10;99.90
22526;DHT22;11429;50.842;4.386;2022-12-26T11:02:41;11.30;99.90
22526;DHT22;11429;50.842;4.386;2022-12-26T11:05:12;11.30;99.90
22526;DHT22;11429;50.842;4.386;2022-12-26T11:07:45;11.30;99.90
22526;DHT22;11429;50.842;4.386;2022-12-26T11:10:24;11.30;99.90
22526;DHT22;11429;50.842;4.386;2022-12-26T11:12:53;11.20;99.90
22526;DHT22;11429;50.842;4.386;2022-12-26T11:15:36;11.20;99.90
22526;DHT22;11429;50.842;4.386;2022-12-26T11:18:31;11.10;99.90
22526;DHT22;11429;50.842;4.386;2022-12-26T11:21:21;11.00;99.90
22526;DHT22;11429;50.842;4.386;2022-12-26T11:23:49;10.90;99.90
22526;DHT22;11429;50.842;4.386;2022-12-26T11:26:21;10.80;99.90
22526;DHT22;11429;50.842;4.386;2022-12-26T11:31:59;10.50;99.90
22526;DHT22;11429;50.842;4.386;2022-12-26T11:34:33;10.20;99.90
22526;DHT22;11429;50.842;4.386;2022-12-26T11:37:00;10.00;99.90
22526;DHT22;11429;50.842;4.386;2022-12-26T11:39:34;10.10;99.90
22526;DHT22;11429;50.842;4.386;2022-12-26T11:42:17;10.00;99.90
22526;DHT22;11429;50.842;4.386;2022-12-26T11:44:49;9.80;99.90
22526;DHT22;11429;50.842;4.386;2022-12-26T11:47:27;9.90;99.90
22526;DHT22;11429;50.842;4.386;2022-12-26T11:50:10;10.10;99.90
22526;DHT22;11429;50.842;4.386;2022-12-26T11:55:56;10.40;99.90
22526;DHT22;11429;50.842;4.386;2022-12-26T11:58:27;10.40;99.90
22526;DHT22;11429;50.842;4.386;2022-12-26T12:01:13;10.20;99.90
22526;DHT22;11429;50.842;4.386;2022-12-26T12:03:50;10.10;99.90
22526;DHT22;11429;50.842;4.386;2022-12-26T12:21:07;10.40;99.90
22526;DHT22;11429;50.842;4.386;2022-12-26T12:27:39;10.50;99.90
22526;DHT22;11429;50.842;4.386;2022-12-26T12:38:30;10.20;99.90
22526;DHT22;11429;50.842;4.386;2022-12-26T12:50:27;10.20;99.90
22526;DHT22;11429;50.842;4.386;2022-12-26T13:02:16;9.80;99.90
22526;DHT22;11429;50.842;4.386;2022-12-26T13:04:58;10.00;99.90
22526;DHT22;11429;50.842;4.386;2022-12-26T13:07:33;10.10;99.90
22526;DHT22;11429;50.842;4.386;2022-12-26T13:10:22;10.10;99.90
22526;DHT22;11429;50.842;4.386;2022-12-26T13:12:49;10.20;99.90
22526;DHT22;11429;50.842;4.386;2022-12-26T13:15:41;10.20;99.90
22526;DHT22;11429;50.842;4.386;2022-12-26T13:18:14;10.20;99.90
22526;DHT22;11429;50.842;4.386;2022-12-26T13:20:49;10.00;99.90
22526;DHT22;11429;50.842;4.386;2022-12-26T13:23:27;10.10;99.90
22526;DHT22;11429;50.842;4.386;2022-12-26T13:26:30;9.90;99.90
22526;DHT22;11429;50.842;4.386;2022-12-26T13:29:05;10.10;99.90
22526;DHT22;11429;50.842;4.386;2022-12-26T13:31:34;10.10;99.90
22526;DHT22;11429;50.842;4.386;2022-12-26T13:34:01;10.00;99.90
22526;DHT22;11429;50.842;4.386;2022-12-26T13:36:43;10.00;99.90
22526;DHT22;11429;50.842;4.386;2022-12-26T13:42:29;10.20;99.90
22526;DHT22;11429;50.842;4.386;2022-12-26T13:45:38;10.00;99.90
22526;DHT22;11429;50.842;4.386;2022-12-26T13:55:54;9.50;99.90
22526;DHT22;11429;50.842;4.386;2022-12-26T13:58:35;9.50;99.90
22526;DHT22;11429;50.842;4.386;2022-12-26T14:06:47;9.50;99.90
22526;DHT22;11429;50.842;4.386;2022-12-26T14:09:19;9.50;99.90
22526;DHT22;11429;50.842;4.386;2022-12-26T14:12:10;9.50;99.90
22526;DHT22;11429;50.842;4.386;2022-12-26T14:25:28;9.10;99.90
22526;DHT22;11429;50.842;4.386;2022-12-26T14:28:14;9.30;99.90
22526;DHT22;11429;50.842;4.386;2022-12-26T14:33:57;9.10;99.90
22526;DHT22;11429;50.842;4.386;2022-12-26T14:36:53;9.20;99.90
22526;DHT22;11429;50.842;4.386;2022-12-26T14:44:57;8.90;99.90
22526;DHT22;11429;50.842;4.386;2022-12-26T14:47:48;8.80;99.90
22526;DHT22;11429;50.842;4.386;2022-12-26T14:56:44;8.90;99.90
22526;DHT22;11429;50.842;4.386;2022-12-26T14:59:31;8.70;99.90
22526;DHT22;11429;50.842;4.386;2022-12-26T15:05:07;8.30;99.90
22526;DHT22;11429;50.842;4.386;2022-12-26T15:20:01;7.80;99.90
22526;DHT22;11429;50.842;4.386;2022-12-26T15:33:37;7.30;99.90
22526;DHT22;11429;50.842;4.386;2022-12-26T15:39:49;7.30;99.90
22526;DHT22;11429;50.842;4.386;2022-12-26T15:47:48;7.10;99.90
22526;DHT22;11429;50.842;4.386;2022-12-26T15:50:26;6.90;99.90
22526;DHT22;11429;50.842;4.386;2022-12-26T15:58:49;7.10;99.90
22526;DHT22;11429;50.842;4.386;2022-12-26T16:01:39;7.00;99.90
22526;DHT22;11429;50.842;4.386;2022-12-26T16:09:45;6.90;99.90
22526;DHT22;11429;50.842;4.386;2022-12-26T16:12:31;7.10;99.90
22526;DHT22;11429;50.842;4.386;2022-12-26T16:15:24;7.30;99.90
22526;DHT22;11429;50.842;4.386;2022-12-26T16:17:50;7.30;99.90
22526;DHT22;11429;50.842;4.386;2022-12-26T16:20:31;7.10;99.90
22526;DHT22;11429;50.842;4.386;2022-12-26T16:23:21;7.30;99.90
22526;DHT22;11429;50.842;4.386;2022-12-26T16:25:49;7.10;99.90
22526;DHT22;11429;50.842;4.386;2022-12-26T16:28:23;6.90;99.90
22526;DHT22;11429;50.842;4.386;2022-12-26T16:30:53;6.90;99.90
22526;DHT22;11429;50.842;4.386;2022-12-26T16:33:29;7.00;99.90
22526;DHT22;11429;50.842;4.386;2022-12-26T16:35:55;6.90;99.90
22526;DHT22;11429;50.842;4.386;2022-12-26T16:38:28;6.90;99.90
22526;DHT22;11429;50.842;4.386;2022-12-26T16:40:54;6.80;99.90
22526;DHT22;11429;50.842;4.386;2022-12-26T16:43:31;7.00;99.90
22526;DHT22;11429;50.842;4.386;2022-12-26T16:46:10;7.00;99.90
22526;DHT22;11429;50.842;4.386;2022-12-26T16:48:37;7.10;99.90
22526;DHT22;11429;50.842;4.386;2022-12-26T16:57:16;6.70;99.90
22526;DHT22;11429;50.842;4.386;2022-12-26T16:59:55;6.60;99.90
22526;DHT22;11429;50.842;4.386;2022-12-26T17:02:31;6.50;99.90
22526;DHT22;11429;50.842;4.386;2022-12-26T17:05:21;6.50;99.90
22526;DHT22;11429;50.842;4.386;2022-12-26T17:07:49;6.60;99.90
22526;DHT22;11429;50.842;4.386;2022-12-26T17:10:25;6.50;99.90
22526;DHT22;11429;50.842;4.386;2022-12-26T17:12:52;6.40;99.90
22526;DHT22;11429;50.842;4.386;2022-12-26T17:15:31;6.50;99.90
22526;DHT22;11429;50.842;4.386;2022-12-26T17:17:58;6.60;99.90
22526;DHT22;11429;50.842;4.386;2022-12-26T17:20:33;6.50;99.90
22526;DHT22;11429;50.842;4.386;2022-12-26T17:23:31;6.50;99.90
22526;DHT22;11429;50.842;4.386;2022-12-26T17:26:25;6.60;99.90
22526;DHT22;11429;50.842;4.386;2022-12-26T17:28:51;6.70;99.90
22526;DHT22;11429;50.842;4.386;2022-12-26T17:31:41;6.60;99.90
22526;DHT22;11429;50.842;4.386;2022-12-26T17:34:22;6.60;99.90
22526;DHT22;11429;50.842;4.386;2022-12-26T17:36:48;6.50;99.90
22526;DHT22;11429;50.842;4.386;2022-12-26T17:39:23;6.60;99.90
22526;DHT22;11429;50.842;4.386;2022-12-26T17:41:52;6.60;99.90
22526;DHT22;11429;50.842;4.386;2022-12-26T17:44:41;6.60;99.90
22526;DHT22;11429;50.842;4.386;2022-12-26T17:47:12;6.40;99.90
22526;DHT22;11429;50.842;4.386;2022-12-26T17:49:38;6.50;99.90
22526;DHT22;11429;50.842;4.386;2022-12-26T17:52:04;6.60;99.90
22526;DHT22;11429;50.842;4.386;2022-12-26T17:54:30;6.50;99.90
22526;DHT22;11429;50.842;4.386;2022-12-26T17:56:56;6.30;99.90
22526;DHT22;11429;50.842;4.386;2022-12-26T17:59:22;6.40;99.90
22526;DHT22;11429;50.842;4.386;2022-12-26T18:01:48;6.50;99.90
22526;DHT22;11429;50.842;4.386;2022-12-26T18:04:14;6.50;99.90
22526;DHT22;11429;50.842;4.386;2022-12-26T18:06:40;6.40;99.90
22526;DHT22;11429;50.842;4.386;2022-12-26T18:09:11;6.60;99.90
22526;DHT22;11429;50.842;4.386;2022-12-26T18:11:44;6.60;99.90
22526;DHT22;11429;50.842;4.386;2022-12-26T18:14:12;6.80;99.90
22526;DHT22;11429;50.842;4.386;2022-12-26T18:16:38;6.80;99.90
22526;DHT22;11429;50.842;4.386;2022-12-26T18:19:04;6.70;99.90
22526;DHT22;11429;50.842;4.386;2022-12-26T18:21:29;6.60;99.90
22526;DHT22;11429;50.842;4.386;2022-12-26T18:23:55;6.50;99.90
22526;DHT22;11429;50.842;4.386;2022-12-26T18:26:25;6.40;99.90
22526;DHT22;11429;50.842;4.386;2022-12-26T18:28:52;6.50;99.90
22526;DHT22;11429;50.842;4.386;2022-12-26T18:31:18;6.50;99.90
22526;DHT22;11429;50.842;4.386;2022-12-26T18:33:47;6.50;99.90
22526;DHT22;11429;50.842;4.386;2022-12-26T18:36:14;6.60;99.90
22526;DHT22;11429;50.842;4.386;2022-12-26T18:38:41;6.60;99.90
22526;DHT22;11429;50.842;4.386;2022-12-26T18:41:12;6.80;99.90
22526;DHT22;11429;50.842;4.386;2022-12-26T18:43:39;6.90;99.90
22526;DHT22;11429;50.842;4.386;2022-12-26T18:46:31;6.90;99.90
22526;DHT22;11429;50.842;4.386;2022-12-26T18:48:59;6.80;99.90
22526;DHT22;11429;50.842;4.386;2022-12-26T18:51:55;6.70;99.90
22526;DHT22;11429;50.842;4.386;2022-12-26T18:54:30;6.60;99.90
22526;DHT22;11429;50.842;4.386;2022-12-26T18:57:10;6.50;99.90
22526;DHT22;11429;50.842;4.386;2022-12-26T18:59:40;6.40;99.90
22526;DHT22;11429;50.842;4.386;2022-12-26T19:02:17;6.60;99.90
22526;DHT22;11429;50.842;4.386;2022-12-26T19:04:43;6.80;99.90
22526;DHT22;11429;50.842;4.386;2022-12-26T19:07:10;6.80;99.90
22526;DHT22;11429;50.842;4.386;2022-12-26T19:09:43;6.70;99.90
22526;DHT22;11429;50.842;4.386;2022-12-26T19:15:47;6.60;99.90
22526;DHT22;11429;50.842;4.386;2022-12-26T19:18:41;6.70;99.90
22526;DHT22;11429;50.842;4.386;2022-12-26T19:21:11;6.50;99.90
22526;DHT22;11429;50.842;4.386;2022-12-26T19:23:39;6.40;99.90
22526;DHT22;11429;50.842;4.386;2022-12-26T19:26:21;6.50;99.90
22526;DHT22;11429;50.842;4.386;2022-12-26T19:28:55;6.70;99.90
22526;DHT22;11429;50.842;4.386;2022-12-26T19:31:21;6.50;99.90
22526;DHT22;11429;50.842;4.386;2022-12-26T19:33:59;6.30;99.90
22526;DHT22;11429;50.842;4.386;2022-12-26T19:36:37;6.30;99.90
22526;DHT22;11429;50.842;4.386;2022-12-26T19:39:15;6.40;99.90
22526;DHT22;11429;50.842;4.386;2022-12-26T19:41:48;6.40;99.90
22526;DHT22;11429;50.842;4.386;2022-12-26T19:44:16;6.40;99.90
22526;DHT22;11429;50.842;4.386;2022-12-26T19:46:42;6.40;99.90
22526;DHT22;11429;50.842;4.386;2022-12-26T19:49:08;6.60;99.90
22526;DHT22;11429;50.842;4.386;2022-12-26T19:51:33;6.40;99.90
22526;DHT22;11429;50.842;4.386;2022-12-26T19:53:59;6.50;99.90
22526;DHT22;11429;50.842;4.386;2022-12-26T19:56:29;6.40;99.90
22526;DHT22;11429;50.842;4.386;2022-12-26T19:58:54;6.30;99.90